createdAt,value
2022-10-11T00:00:16.063Z,13.47
2022-10-11T00:03:04.166Z,13.42
2022-10-11T00:05:32.669Z,13.39
2022-10-11T00:08:00.054Z,13.34
2022-10-11T00:10:27.311Z,13.31
2022-10-11T00:12:55.055Z,13.30
2022-10-11T00:15:22.887Z,13.28
2022-10-11T00:17:50.209Z,13.28
2022-10-11T00:20:18.152Z,13.26
2022-10-11T00:22:45.635Z,13.23
2022-10-11T00:25:12.993Z,13.21
2022-10-11T00:27:40.479Z,13.22
2022-10-11T00:30:09.160Z,13.23
2022-10-11T00:32:38.301Z,13.23
2022-10-11T00:35:07.239Z,13.24
2022-10-11T00:37:35.910Z,13.21
2022-10-11T00:40:07.107Z,13.20
2022-10-11T00:42:34.584Z,13.17
2022-10-11T00:45:40.085Z,13.14
2022-10-11T00:48:17.668Z,13.16
2022-10-11T00:50:44.806Z,13.19
2022-10-11T00:53:12.600Z,13.21
2022-10-11T00:55:47.013Z,13.17
2022-10-11T00:58:14.966Z,13.01
2022-10-11T01:00:42.309Z,12.95
2022-10-11T01:03:10.150Z,12.95
2022-10-11T01:05:39.494Z,12.95
2022-10-11T01:08:08.308Z,12.96
2022-10-11T01:10:35.817Z,12.98
2022-10-11T01:13:35.948Z,12.98
2022-10-11T01:16:24.396Z,12.95
2022-10-11T01:19:07.025Z,12.92
2022-10-11T01:21:49.026Z,12.82
2022-10-11T01:24:28.433Z,12.75
2022-10-11T01:27:25.132Z,12.74
2022-10-11T01:30:03.393Z,12.71
2022-10-11T01:32:43.929Z,12.72
2022-10-11T01:35:28.525Z,12.74
2022-10-11T01:38:06.016Z,12.73
2022-10-11T01:40:39.224Z,12.69
2022-10-11T01:43:06.533Z,12.66
2022-10-11T01:45:35.146Z,12.63
2022-10-11T01:48:13.418Z,12.63
2022-10-11T01:50:47.509Z,12.64
2022-10-11T01:53:47.861Z,12.67
2022-10-11T01:56:15.545Z,12.71
2022-10-11T01:58:51.916Z,12.71
2022-10-11T02:01:31.558Z,12.69
2022-10-11T02:04:10.817Z,12.66
2022-10-11T02:07:05.425Z,12.68
2022-10-11T02:09:46.286Z,12.68
2022-10-11T02:12:20.556Z,12.63
2022-10-11T02:14:51.033Z,12.63
2022-10-11T02:17:19.680Z,12.64
2022-10-11T02:19:52.148Z,12.68
2022-10-11T02:22:24.323Z,12.74
2022-10-11T02:24:55.469Z,12.82
2022-10-11T02:27:27.189Z,12.87
2022-10-11T02:29:58.374Z,12.90
2022-10-11T02:32:27.350Z,12.91
2022-10-11T02:34:57.735Z,12.92
2022-10-11T02:37:32.159Z,12.95
2022-10-11T02:40:27.794Z,12.99
2022-10-11T02:43:01.280Z,13.02
2022-10-11T02:45:38.113Z,13.03
2022-10-11T02:48:08.356Z,13.07
2022-10-11T02:50:36.822Z,13.11
2022-10-11T02:53:04.504Z,13.13
2022-10-11T02:55:32.280Z,13.14
2022-10-11T02:58:00.111Z,13.13
2022-10-11T03:00:27.900Z,13.14
2022-10-11T03:02:55.690Z,13.15
2022-10-11T03:05:23.084Z,13.14
2022-10-11T03:07:50.102Z,13.14
2022-10-11T03:10:18.778Z,13.13
2022-10-11T03:12:46.196Z,13.11
2022-10-11T03:15:13.318Z,13.07
2022-10-11T03:17:41.144Z,13.05
2022-10-11T03:20:09.061Z,13.00
2022-10-11T03:22:36.247Z,12.96
2022-10-11T03:25:04.777Z,12.96
2022-10-11T03:27:33.409Z,12.96
2022-10-11T03:30:00.859Z,12.95
2022-10-11T03:32:28.641Z,12.92
2022-10-11T03:34:56.977Z,12.92
2022-10-11T03:37:24.997Z,12.93
2022-10-11T03:39:52.325Z,12.91
2022-10-11T03:42:20.293Z,12.92
2022-10-11T03:44:49.180Z,12.91
2022-10-11T03:47:17.101Z,12.88
2022-10-11T03:49:44.404Z,12.84
2022-10-11T03:52:11.558Z,12.83
2022-10-11T03:54:39.079Z,12.81
2022-10-11T03:57:07.050Z,12.82
2022-10-11T03:59:34.080Z,12.82
2022-10-11T04:02:01.447Z,12.80
2022-10-11T04:04:29.239Z,12.80
2022-10-11T04:06:56.330Z,12.79
2022-10-11T04:09:23.549Z,12.76
2022-10-11T04:11:51.152Z,12.76
2022-10-11T04:14:18.589Z,12.75
2022-10-11T04:16:46.076Z,12.78
2022-10-11T04:19:13.809Z,12.83
2022-10-11T04:21:41.277Z,12.85
2022-10-11T04:24:11.125Z,12.84
2022-10-11T04:26:38.427Z,12.83
2022-10-11T04:29:05.766Z,12.83
2022-10-11T04:31:33.225Z,12.79
2022-10-11T04:34:00.765Z,12.77
2022-10-11T04:36:28.042Z,12.76
2022-10-11T04:38:56.182Z,12.77
2022-10-11T04:41:23.905Z,12.78
2022-10-11T04:43:51.056Z,12.79
2022-10-11T04:46:18.380Z,12.78
2022-10-11T04:48:45.704Z,12.78
2022-10-11T04:51:12.799Z,12.78
2022-10-11T04:53:40.206Z,12.80
2022-10-11T04:56:10.901Z,12.83
2022-10-11T04:58:42.821Z,12.89
2022-10-11T05:01:11.332Z,12.92
2022-10-11T05:03:38.373Z,12.95
2022-10-11T05:06:06.454Z,12.95
2022-10-11T05:08:34.009Z,12.94
2022-10-11T05:11:03.989Z,12.92
2022-10-11T05:13:32.736Z,12.92
2022-10-11T05:16:01.055Z,12.90
2022-10-11T05:18:29.220Z,12.90
2022-10-11T05:21:06.108Z,12.90
2022-10-11T05:23:35.530Z,12.88
2022-10-11T05:26:03.563Z,12.87
2022-10-11T05:28:31.843Z,12.89
2022-10-11T05:30:59.598Z,12.91
2022-10-11T05:33:27.386Z,12.94
2022-10-11T05:35:54.733Z,12.97
2022-10-11T05:38:22.561Z,13.00
2022-10-11T05:40:50.049Z,13.03
2022-10-11T05:43:17.728Z,13.05
2022-10-11T05:45:46.130Z,13.07
2022-10-11T05:48:13.499Z,13.10
2022-10-11T05:50:41.226Z,13.10
2022-10-11T05:53:09.018Z,13.08
2022-10-11T05:55:41.654Z,13.09
2022-10-11T05:58:14.669Z,13.14
2022-10-11T06:00:41.993Z,13.18
2022-10-11T06:03:12.357Z,13.20
2022-10-11T06:05:40.462Z,13.19
2022-10-11T06:08:09.540Z,13.18
2022-10-11T06:10:38.371Z,13.13
2022-10-11T06:13:07.265Z,13.12
2022-10-11T06:15:38.355Z,13.13
2022-10-11T06:18:05.568Z,13.13
2022-10-11T06:20:33.057Z,13.11
2022-10-11T06:23:00.761Z,13.07
2022-10-11T06:25:27.916Z,13.06
2022-10-11T06:27:55.842Z,13.11
2022-10-11T06:30:23.899Z,13.14
2022-10-11T06:32:51.393Z,13.15
2022-10-11T06:35:18.532Z,13.11
2022-10-11T06:37:45.733Z,13.06
2022-10-11T06:40:13.143Z,12.99
2022-10-11T06:42:40.804Z,12.94
2022-10-11T06:45:08.520Z,12.92
2022-10-11T06:47:35.920Z,13.44
2022-10-11T06:50:03.888Z,14.69
2022-10-11T06:52:31.255Z,15.72
2022-10-11T06:54:58.497Z,16.56
2022-10-11T06:57:27.361Z,17.25
2022-10-11T06:59:54.784Z,17.75
2022-10-11T07:02:22.276Z,18.16
2022-10-11T07:04:49.760Z,18.45
2022-10-11T07:07:17.383Z,18.77
2022-10-11T07:09:44.496Z,18.74
2022-10-11T07:12:12.345Z,18.72
2022-10-11T07:14:39.877Z,19.27
2022-10-11T07:17:07.392Z,19.96
2022-10-11T07:19:35.378Z,20.33
2022-10-11T07:22:02.651Z,20.41
2022-10-11T07:24:29.816Z,20.60
2022-10-11T07:26:57.752Z,20.89
2022-10-11T07:29:25.163Z,21.14
2022-10-11T07:31:52.195Z,21.19
2022-10-11T07:34:20.698Z,21.19
2022-10-11T07:36:48.473Z,20.53
2022-10-11T07:39:15.593Z,19.96
2022-10-11T07:41:45.870Z,19.31
2022-10-11T07:44:14.320Z,19.47
2022-10-11T07:46:41.515Z,20.04
2022-10-11T07:49:22.573Z,20.57
2022-10-11T07:52:06.260Z,20.98
2022-10-11T07:54:33.585Z,21.42
2022-10-11T07:57:01.268Z,21.65
2022-10-11T07:59:28.729Z,21.77
2022-10-11T08:01:56.236Z,21.99
2022-10-11T08:04:23.606Z,22.14
2022-10-11T08:06:53.317Z,22.02
2022-10-11T08:09:20.864Z,21.82
2022-10-11T08:11:48.230Z,21.66
2022-10-11T08:14:15.345Z,21.76
2022-10-11T08:16:42.596Z,21.83
2022-10-11T08:19:10.765Z,21.90
2022-10-11T08:21:38.250Z,22.04
2022-10-11T08:24:06.724Z,21.98
2022-10-11T08:26:34.793Z,21.85
2022-10-11T08:29:03.102Z,21.93
2022-10-11T08:31:31.936Z,21.98
2022-10-11T08:33:59.512Z,22.02
2022-10-11T08:36:26.886Z,21.92
2022-10-11T08:38:54.108Z,21.62
2022-10-11T08:41:55.379Z,21.16
2022-10-11T08:45:05.888Z,20.89
2022-10-11T08:47:43.678Z,20.49
2022-10-11T08:50:19.572Z,20.23
2022-10-11T08:52:56.357Z,19.96
2022-10-11T08:55:43.609Z,19.93
2022-10-11T08:58:16.564Z,19.86
2022-10-11T09:00:47.926Z,19.54
2022-10-11T09:03:37.621Z,19.33
2022-10-11T09:06:24.127Z,19.20
2022-10-11T09:09:30.105Z,18.98
2022-10-11T09:12:03.265Z,18.81
2022-10-11T09:14:43.421Z,18.87
2022-10-11T09:17:32.176Z,18.87
2022-10-11T09:20:26.045Z,18.78
2022-10-11T09:23:03.771Z,18.66
2022-10-11T09:25:44.203Z,18.61
2022-10-11T09:28:30.361Z,18.80
2022-10-11T09:30:58.926Z,18.94
2022-10-11T09:33:34.078Z,19.01
2022-10-11T09:36:11.741Z,19.17
2022-10-11T09:38:46.100Z,19.26
2022-10-11T09:41:16.709Z,19.07
2022-10-11T09:43:52.245Z,18.93
2022-10-11T09:46:30.470Z,18.86
2022-10-11T09:48:59.885Z,18.73
2022-10-11T09:51:27.935Z,18.52
2022-10-11T09:54:00.660Z,18.28
2022-10-11T09:56:30.702Z,17.95
2022-10-11T09:59:20.966Z,17.71
2022-10-11T10:01:50.206Z,17.54
2022-10-11T10:04:17.764Z,17.32
2022-10-11T10:06:44.986Z,17.20
2022-10-11T10:09:25.701Z,17.15
2022-10-11T10:11:55.644Z,17.17
2022-10-11T10:14:30.668Z,17.19
2022-10-11T10:17:06.466Z,17.14
2022-10-11T10:19:51.457Z,17.09
2022-10-11T10:22:27.431Z,17.12
2022-10-11T10:24:57.108Z,17.16
2022-10-11T10:27:27.242Z,17.09
2022-10-11T10:30:09.801Z,17.01
2022-10-11T10:32:53.016Z,16.94
2022-10-11T10:35:45.456Z,16.92
2022-10-11T10:38:28.050Z,16.97
2022-10-11T10:41:04.531Z,16.89
2022-10-11T10:43:37.431Z,16.83
2022-10-11T10:46:36.418Z,16.86
2022-10-11T10:49:52.544Z,16.99
2022-10-11T10:52:44.944Z,17.12
2022-10-11T10:55:42.391Z,17.12
2022-10-11T10:58:42.435Z,17.01
2022-10-11T11:01:23.605Z,17.00
2022-10-11T11:04:28.981Z,16.87
2022-10-11T11:07:13.965Z,16.59
2022-10-11T11:09:50.355Z,16.45
2022-10-11T11:12:30.859Z,16.39
2022-10-11T11:15:02.262Z,16.34
2022-10-11T11:17:35.420Z,16.25
2022-10-11T11:20:18.120Z,16.18
2022-10-11T11:22:59.429Z,16.22
2022-10-11T11:25:51.343Z,16.15
2022-10-11T11:28:30.492Z,16.00
2022-10-11T11:31:49.005Z,15.95
2022-10-11T11:34:24.213Z,16.08
2022-10-11T11:37:00.054Z,16.19
2022-10-11T11:39:43.058Z,16.31
2022-10-11T11:42:48.205Z,16.34
2022-10-11T11:45:23.557Z,16.41
2022-10-11T11:48:05.285Z,16.51
2022-10-11T11:50:44.683Z,16.60
2022-10-11T11:53:16.194Z,16.62
2022-10-11T11:55:52.493Z,16.52
2022-10-11T11:58:46.115Z,16.47
2022-10-11T12:01:39.315Z,16.40
2022-10-11T12:04:20.734Z,16.42
2022-10-11T12:07:15.782Z,16.47
2022-10-11T12:09:50.287Z,16.53
2022-10-11T12:12:36.120Z,16.60
2022-10-11T12:15:11.829Z,16.60
2022-10-11T12:18:16.200Z,16.46
2022-10-11T12:20:44.196Z,16.41
2022-10-11T12:23:30.670Z,16.48
2022-10-11T12:26:28.873Z,16.49
2022-10-11T12:29:05.609Z,16.45
2022-10-11T12:31:35.760Z,16.46
2022-10-11T12:34:16.657Z,16.49
2022-10-11T12:36:47.572Z,16.52
2022-10-11T12:39:17.960Z,16.52
2022-10-11T12:41:53.590Z,16.46
2022-10-11T12:44:26.320Z,16.40
2022-10-11T12:46:54.338Z,16.38
2022-10-11T12:49:28.048Z,16.34
2022-10-11T12:52:20.049Z,16.34
2022-10-11T12:54:59.877Z,16.31
2022-10-11T12:57:46.203Z,16.26
2022-10-11T13:00:28.609Z,16.18
2022-10-11T13:03:02.897Z,16.18
2022-10-11T13:05:44.994Z,16.23
2022-10-11T13:08:25.904Z,16.30
2022-10-11T13:10:55.345Z,16.28
2022-10-11T13:13:41.330Z,16.24
2022-10-11T13:16:16.796Z,16.20
2022-10-11T13:18:47.464Z,16.15
2022-10-11T13:21:25.444Z,16.13
2022-10-11T13:24:00.336Z,16.16
2022-10-11T13:26:29.841Z,16.19
2022-10-11T13:28:59.679Z,16.13
2022-10-11T13:31:27.524Z,16.12
2022-10-11T13:33:58.737Z,16.13
2022-10-11T13:36:27.393Z,16.13
2022-10-11T13:38:58.584Z,16.10
2022-10-11T13:41:28.781Z,16.08
2022-10-11T13:43:57.917Z,16.04
2022-10-11T13:46:27.991Z,15.99
2022-10-11T13:49:04.136Z,15.91
2022-10-11T13:51:37.199Z,15.89
2022-10-11T13:54:06.165Z,15.92
2022-10-11T13:56:45.992Z,15.91
2022-10-11T13:59:23.088Z,15.94
2022-10-11T14:01:57.414Z,15.94
2022-10-11T14:04:29.524Z,15.85
2022-10-11T14:07:02.006Z,15.79
2022-10-11T14:09:36.481Z,15.76
2022-10-11T14:12:27.902Z,15.73
2022-10-11T14:14:55.357Z,15.71
2022-10-11T14:17:43.660Z,15.68
2022-10-11T14:20:33.403Z,15.63
2022-10-11T14:23:00.965Z,15.60
2022-10-11T14:25:28.727Z,15.56
2022-10-11T14:27:56.316Z,15.56
2022-10-11T14:30:27.326Z,15.61
2022-10-11T14:32:57.540Z,15.63
2022-10-11T14:35:32.129Z,15.60
2022-10-11T14:38:00.304Z,15.54
2022-10-11T14:40:30.084Z,15.50
2022-10-11T14:42:57.951Z,15.47
2022-10-11T14:45:27.137Z,15.46
2022-10-11T14:47:55.330Z,15.42
2022-10-11T14:50:36.579Z,15.38
2022-10-11T14:53:05.513Z,15.38
2022-10-11T14:55:35.275Z,15.37
2022-10-11T14:58:03.001Z,15.35
2022-10-11T15:00:31.321Z,15.38
2022-10-11T15:02:59.227Z,15.41
2022-10-11T15:05:33.506Z,15.40
2022-10-11T15:08:05.768Z,15.33
2022-10-11T15:10:40.568Z,15.26
2022-10-11T15:13:08.783Z,15.23
2022-10-11T15:15:40.560Z,15.19
2022-10-11T15:18:12.353Z,15.11
2022-10-11T15:20:43.127Z,15.04
2022-10-11T15:23:10.792Z,14.98
2022-10-11T15:25:41.425Z,14.91
2022-10-11T15:28:19.757Z,14.84
2022-10-11T15:30:47.103Z,14.76
2022-10-11T15:33:14.333Z,14.70
2022-10-11T15:35:41.737Z,14.65
2022-10-11T15:38:17.446Z,14.59
2022-10-11T15:40:46.875Z,14.54
2022-10-11T15:43:15.498Z,14.47
2022-10-11T15:45:43.543Z,14.42
2022-10-11T15:48:15.552Z,14.34
2022-10-11T15:50:42.700Z,14.27
2022-10-11T15:53:18.901Z,14.21
2022-10-11T15:55:51.410Z,14.15
2022-10-11T15:58:21.971Z,14.10
2022-10-11T16:00:55.507Z,14.04
2022-10-11T16:03:26.026Z,13.98
2022-10-11T16:05:54.343Z,13.91
2022-10-11T16:08:22.104Z,13.84
2022-10-11T16:10:50.473Z,13.79
2022-10-11T16:13:17.944Z,13.72
2022-10-11T16:15:46.036Z,13.66
2022-10-11T16:18:15.690Z,13.59
2022-10-11T16:20:46.842Z,13.54
2022-10-11T16:23:14.911Z,13.47
2022-10-11T16:25:43.090Z,13.42
2022-10-11T16:28:10.648Z,13.35
2022-10-11T16:30:45.507Z,13.29
2022-10-11T16:33:13.457Z,13.23
2022-10-11T16:35:41.801Z,13.16
2022-10-11T16:38:09.876Z,13.09
2022-10-11T16:40:38.939Z,13.04
2022-10-11T16:43:07.975Z,13.01
2022-10-11T16:45:36.111Z,12.97
2022-10-11T16:48:04.345Z,12.94
2022-10-11T16:50:34.482Z,12.88
2022-10-11T16:53:06.069Z,12.82
2022-10-11T16:55:33.120Z,12.77
2022-10-11T16:58:00.150Z,12.72
2022-10-11T17:00:27.912Z,12.66
2022-10-11T17:03:07.165Z,12.61
2022-10-11T17:06:10.630Z,12.55
2022-10-11T17:09:00.797Z,12.51
2022-10-11T17:11:56.602Z,12.49
2022-10-11T17:14:51.847Z,12.47
2022-10-11T17:17:52.290Z,12.50
2022-10-11T17:20:40.937Z,12.50
2022-10-11T17:23:32.769Z,12.48
2022-10-11T17:26:31.192Z,12.51
2022-10-11T17:29:21.635Z,12.54
2022-10-11T17:32:14.106Z,12.52
2022-10-11T17:35:15.855Z,12.46
2022-10-11T17:37:53.215Z,12.35
2022-10-11T17:40:21.103Z,12.26
2022-10-11T17:42:48.254Z,12.20
2022-10-11T17:45:15.711Z,12.21
2022-10-11T17:47:43.792Z,12.24
2022-10-11T17:50:11.124Z,12.27
2022-10-11T17:52:38.239Z,12.29
2022-10-11T17:55:06.393Z,12.30
2022-10-11T17:57:33.452Z,12.30
2022-10-11T18:00:03.511Z,12.31
2022-10-11T18:02:34.704Z,12.30
2022-10-11T18:05:02.926Z,12.29
2022-10-11T18:07:30.034Z,12.30
2022-10-11T18:09:57.854Z,12.31
2022-10-11T18:12:25.691Z,12.31
2022-10-11T18:14:52.792Z,12.30
2022-10-11T18:17:20.415Z,12.26
2022-10-11T18:19:47.810Z,12.16
2022-10-11T18:22:14.829Z,12.06
2022-10-11T18:24:42.595Z,11.97
2022-10-11T18:27:10.095Z,11.88
2022-10-11T18:29:37.178Z,11.77
2022-10-11T18:32:05.104Z,11.69
2022-10-11T18:34:33.072Z,11.64
2022-10-11T18:37:00.452Z,11.61
2022-10-11T18:39:28.186Z,11.59
2022-10-11T18:41:55.302Z,11.54
2022-10-11T18:44:22.672Z,11.48
2022-10-11T18:46:51.088Z,11.41
2022-10-11T18:49:18.062Z,11.35
2022-10-11T18:51:46.105Z,11.30
2022-10-11T18:54:18.427Z,11.26
2022-10-11T18:56:48.731Z,11.23
2022-10-11T18:59:16.366Z,11.24
2022-10-11T19:01:44.352Z,11.26
2022-10-11T19:04:13.260Z,11.27
2022-10-11T19:06:44.189Z,11.25
2022-10-11T19:09:14.555Z,11.22
2022-10-11T19:11:41.806Z,11.17
2022-10-11T19:14:15.260Z,11.13
2022-10-11T19:16:45.919Z,11.08
2022-10-11T19:19:12.911Z,11.00
2022-10-11T19:21:40.783Z,10.92
2022-10-11T19:24:08.799Z,10.89
2022-10-11T19:26:40.537Z,10.93
2022-10-11T19:29:09.966Z,10.95
2022-10-11T19:31:44.801Z,10.93
2022-10-11T19:34:13.224Z,10.89
2022-10-11T19:36:42.427Z,10.88
2022-10-11T19:39:15.114Z,10.87
2022-10-11T19:41:43.373Z,10.87
2022-10-11T19:44:12.049Z,10.87
2022-10-11T19:46:55.141Z,10.87
2022-10-11T19:49:24.452Z,10.88
2022-10-11T19:51:55.222Z,10.89
2022-10-11T19:54:23.300Z,10.89
2022-10-11T19:56:51.361Z,10.92
2022-10-11T19:59:19.561Z,10.96
2022-10-11T20:01:51.984Z,11.01
2022-10-11T20:07:08.541Z,10.96
2022-10-11T20:09:36.732Z,10.88
2022-10-11T20:12:04.187Z,10.79
2022-10-11T20:14:31.289Z,10.70
2022-10-11T20:16:59.120Z,10.61
2022-10-11T20:19:30.555Z,10.51
2022-10-11T20:22:00.257Z,10.46
2022-10-11T20:24:31.908Z,10.41
2022-10-11T20:26:59.015Z,10.34
2022-10-11T20:29:27.336Z,10.28
2022-10-11T20:31:55.887Z,10.21
2022-10-11T20:34:23.108Z,10.16
2022-10-11T20:36:50.668Z,10.13
2022-10-11T20:39:18.401Z,10.11
2022-10-11T20:41:46.264Z,10.10
2022-10-11T20:44:15.918Z,10.10
2022-10-11T20:46:43.492Z,10.10
2022-10-11T20:49:11.495Z,10.07
2022-10-11T20:51:41.419Z,10.06
2022-10-11T20:54:08.841Z,10.05
2022-10-11T20:56:36.250Z,10.02
2022-10-11T20:59:04.210Z,10.00
2022-10-11T21:01:38.197Z,10.02
2022-10-11T21:04:07.465Z,10.03
2022-10-11T21:06:34.633Z,10.07
2022-10-11T21:09:01.999Z,10.11
2022-10-11T21:11:31.914Z,10.14
2022-10-11T21:14:01.256Z,10.15
2022-10-11T21:16:28.486Z,10.15
2022-10-11T21:18:57.027Z,10.14
2022-10-11T21:21:25.756Z,10.12
2022-10-11T21:23:54.186Z,10.11
2022-10-11T21:26:21.857Z,10.06
2022-10-11T21:28:49.363Z,10.01
2022-10-11T21:31:18.655Z,9.99
2022-10-11T21:33:46.031Z,9.97
2022-10-11T21:36:17.817Z,9.93
2022-10-11T21:38:45.673Z,9.87
2022-10-11T21:41:17.524Z,9.85
2022-10-11T21:43:45.989Z,9.82
2022-10-11T21:46:22.487Z,9.82
2022-10-11T21:48:50.216Z,9.86
2022-10-11T21:51:26.504Z,9.83
2022-10-11T21:53:55.832Z,9.80
2022-10-11T21:56:23.538Z,9.75
2022-10-11T21:58:50.927Z,9.73
2022-10-11T22:01:19.823Z,9.76
2022-10-11T22:03:47.982Z,9.79
2022-10-11T22:06:16.219Z,9.77
2022-10-11T22:08:43.877Z,9.71
2022-10-11T22:11:11.597Z,9.64
2022-10-11T22:13:38.954Z,9.59
2022-10-11T22:16:09.136Z,9.60
2022-10-11T22:18:36.523Z,9.65
2022-10-11T22:21:14.434Z,9.70
2022-10-11T22:23:44.157Z,9.73
2022-10-11T22:26:14.582Z,9.74
2022-10-11T22:28:42.067Z,9.72
2022-10-11T22:31:10.170Z,9.67
2022-10-11T22:33:38.002Z,9.65
2022-10-11T22:36:11.810Z,9.65
2022-10-11T22:38:40.848Z,9.70
2022-10-11T22:41:09.222Z,9.73
2022-10-11T22:43:36.871Z,9.77
2022-10-11T22:46:05.627Z,9.77
2022-10-11T22:48:33.048Z,9.75
2022-10-11T22:51:01.013Z,9.72
2022-10-11T22:53:28.867Z,9.68
2022-10-11T22:55:56.131Z,9.63
2022-10-11T22:58:23.513Z,9.61
2022-10-11T23:00:50.998Z,9.60
2022-10-11T23:03:19.123Z,9.59
2022-10-11T23:05:57.467Z,9.61
2022-10-11T23:08:25.579Z,9.63
2022-10-11T23:10:53.298Z,9.64
2022-10-11T23:13:21.155Z,9.61
2022-10-11T23:15:49.064Z,9.58
2022-10-11T23:18:16.742Z,9.58
2022-10-11T23:20:44.457Z,9.54
2022-10-11T23:23:12.046Z,9.51
2022-10-11T23:25:39.213Z,9.52
2022-10-11T23:28:06.509Z,9.54
2022-10-11T23:30:34.378Z,9.53
2022-10-11T23:33:01.594Z,9.51
2022-10-11T23:35:28.724Z,9.49
2022-10-11T23:37:56.400Z,9.46
2022-10-11T23:40:23.412Z,9.45
2022-10-11T23:42:50.850Z,9.40
2022-10-11T23:45:18.429Z,9.34
2022-10-11T23:47:45.446Z,9.29
2022-10-11T23:50:12.848Z,9.27
2022-10-11T23:52:40.290Z,9.28
2022-10-11T23:55:07.920Z,9.31
2022-10-11T23:57:35.469Z,9.33
